createdAt,value
2018-08-08T00:01:34.241Z,52.30
2018-08-08T00:04:01.710Z,52.10
2018-08-08T00:06:29.147Z,52.30
2018-08-08T00:08:56.647Z,52.10
2018-08-08T00:11:24.155Z,52.50
2018-08-08T00:13:51.624Z,52.80
2018-08-08T00:16:18.958Z,52.00
2018-08-08T00:18:46.566Z,51.70
2018-08-08T00:21:13.990Z,51.30
2018-08-08T00:23:41.446Z,51.20
2018-08-08T00:26:08.898Z,51.20
2018-08-08T00:28:36.302Z,51.20
2018-08-08T00:31:03.718Z,51.20
2018-08-08T00:33:31.150Z,51.20
2018-08-08T00:35:58.586Z,51.20
2018-08-08T00:38:26.054Z,51.40
2018-08-08T00:40:53.548Z,53.10
2018-08-08T00:43:21.033Z,53.60
2018-08-08T00:45:48.413Z,54.20
2018-08-08T00:48:15.903Z,54.90
2018-08-08T00:50:43.333Z,55.20
2018-08-08T00:53:10.770Z,55.90
2018-08-08T00:55:38.224Z,56.20
2018-08-08T00:58:05.633Z,56.50
2018-08-08T01:00:33.085Z,57.10
2018-08-08T01:03:00.494Z,56.50
2018-08-08T01:05:28.061Z,56.50
2018-08-08T01:07:55.906Z,56.40
2018-08-08T01:10:23.398Z,56.60
2018-08-08T01:12:50.853Z,57.00
2018-08-08T01:15:18.417Z,57.30
2018-08-08T01:17:45.833Z,57.90
2018-08-08T01:20:15.093Z,58.20
2018-08-08T01:22:42.714Z,58.20
2018-08-08T01:25:12.065Z,58.20
2018-08-08T01:27:39.601Z,58.40
2018-08-08T01:30:09.612Z,58.30
2018-08-08T01:32:37.083Z,58.80
2018-08-08T01:35:05.427Z,58.90
2018-08-08T01:37:32.845Z,58.80
2018-08-08T01:40:00.278Z,58.80
2018-08-08T01:42:27.769Z,59.00
2018-08-08T01:44:55.281Z,59.10
2018-08-08T01:47:22.807Z,59.00
2018-08-08T01:49:50.251Z,59.00
2018-08-08T01:52:17.682Z,58.50
2018-08-08T01:54:45.289Z,59.10
2018-08-08T01:57:12.795Z,59.00
2018-08-08T01:59:40.215Z,59.00
2018-08-08T02:02:07.721Z,59.10
2018-08-08T02:04:35.174Z,59.00
2018-08-08T02:07:03.166Z,59.10
2018-08-08T02:09:30.621Z,59.10
2018-08-08T02:11:58.110Z,59.20
2018-08-08T02:14:25.684Z,59.20
2018-08-08T02:16:53.129Z,59.50
2018-08-08T02:19:20.886Z,59.90
2018-08-08T02:21:48.557Z,59.70
2018-08-08T02:24:15.985Z,59.60
2018-08-08T02:26:43.450Z,59.60
2018-08-08T02:29:10.854Z,60.10
2018-08-08T02:31:38.287Z,60.30
2018-08-08T02:34:05.821Z,60.30
2018-08-08T02:36:33.240Z,60.30
2018-08-08T02:39:00.715Z,59.70
2018-08-08T02:41:28.189Z,60.30
2018-08-08T02:43:55.621Z,60.60
2018-08-08T02:46:23.085Z,61.00
2018-08-08T02:48:51.107Z,61.20
2018-08-08T02:51:18.561Z,61.40
2018-08-08T02:53:45.960Z,61.50
2018-08-08T02:56:13.482Z,61.90
2018-08-08T02:58:40.958Z,62.50
2018-08-08T03:01:08.417Z,63.20
2018-08-08T03:03:35.937Z,63.50
2018-08-08T03:06:03.498Z,63.30
2018-08-08T03:08:31.154Z,63.20
2018-08-08T03:10:58.714Z,62.90
2018-08-08T03:13:26.220Z,62.80
2018-08-08T03:15:53.785Z,62.60
2018-08-08T03:18:21.289Z,63.00
2018-08-08T03:20:48.717Z,63.20
2018-08-08T03:23:16.241Z,63.70
2018-08-08T03:25:43.748Z,65.00
2018-08-08T03:28:11.202Z,65.00
2018-08-08T03:30:39.002Z,65.80
2018-08-08T03:33:06.700Z,66.20
2018-08-08T03:35:34.193Z,66.70
2018-08-08T03:38:01.841Z,67.10
2018-08-08T03:40:29.271Z,67.80
2018-08-08T03:42:56.801Z,68.60
2018-08-08T03:45:24.275Z,69.20
2018-08-08T03:47:51.826Z,70.60
2018-08-08T03:50:19.377Z,71.10
2018-08-08T03:52:46.864Z,72.30
2018-08-08T03:55:14.347Z,74.20
2018-08-08T03:57:42.097Z,75.70
2018-08-08T04:00:12.530Z,77.20
2018-08-08T04:02:40.226Z,78.80
2018-08-08T04:05:07.611Z,79.60
2018-08-08T04:07:35.674Z,80.90
2018-08-08T04:10:03.777Z,81.40
2018-08-08T04:12:31.373Z,82.30
2018-08-08T04:14:59.168Z,82.50
2018-08-08T04:17:26.601Z,83.20
2018-08-08T04:19:55.515Z,83.80
2018-08-08T04:22:23.230Z,84.60
2018-08-08T04:24:50.702Z,84.70
2018-08-08T04:27:18.293Z,85.60
2018-08-08T04:29:46.285Z,86.50
2018-08-08T04:32:13.937Z,86.90
2018-08-08T04:34:41.377Z,87.30
2018-08-08T04:37:08.918Z,87.10
2018-08-08T04:39:36.517Z,87.60
2018-08-08T04:42:04.107Z,88.20
2018-08-08T04:44:31.964Z,88.80
2018-08-08T04:46:59.629Z,87.90
2018-08-08T04:49:27.085Z,88.90
2018-08-08T04:51:54.768Z,89.60
2018-08-08T04:54:22.317Z,90.00
2018-08-08T04:56:50.143Z,89.50
2018-08-08T04:59:17.600Z,90.00
2018-08-08T05:01:45.158Z,90.00
2018-08-08T05:04:12.615Z,90.20
2018-08-08T05:06:40.109Z,90.50
2018-08-08T05:09:09.448Z,90.40
2018-08-08T05:11:36.870Z,90.50
2018-08-08T05:14:04.595Z,90.50
2018-08-08T05:16:32.258Z,90.20
2018-08-08T05:18:59.990Z,90.30
2018-08-08T05:21:27.578Z,90.20
2018-08-08T05:23:55.029Z,90.20
2018-08-08T05:26:22.537Z,90.40
2018-08-08T05:28:50.061Z,90.20
2018-08-08T05:31:17.582Z,90.40
2018-08-08T05:33:45.087Z,90.80
2018-08-08T05:36:12.617Z,90.60
2018-08-08T05:38:40.214Z,90.80
2018-08-08T05:41:07.738Z,90.80
2018-08-08T05:43:35.187Z,91.00
2018-08-08T05:46:02.747Z,91.10
2018-08-08T05:48:30.218Z,91.10
2018-08-08T05:50:57.751Z,91.20
2018-08-08T05:53:25.319Z,91.30
2018-08-08T05:55:52.813Z,91.40
2018-08-08T05:58:20.351Z,91.20
2018-08-08T06:00:47.862Z,91.20
2018-08-08T06:03:15.420Z,91.20
2018-08-08T06:05:42.877Z,91.70
2018-08-08T06:08:10.491Z,91.00
2018-08-08T06:10:37.897Z,90.90
2018-08-08T06:13:05.986Z,90.90
2018-08-08T06:15:33.434Z,90.90
2018-08-08T06:18:01.378Z,91.00
2018-08-08T06:20:28.846Z,90.70
2018-08-08T06:22:56.306Z,90.70
2018-08-08T06:25:23.842Z,90.60
2018-08-08T06:27:51.390Z,90.70
2018-08-08T06:30:24.188Z,90.10
2018-08-08T06:32:52.505Z,89.90
2018-08-08T06:35:22.060Z,90.10
2018-08-08T06:37:49.530Z,89.80
2018-08-08T06:40:16.928Z,89.50
2018-08-08T06:42:45.037Z,89.60
2018-08-08T06:45:15.422Z,90.00
2018-08-08T06:47:42.908Z,90.00
2018-08-08T06:50:11.387Z,89.90
2018-08-08T06:52:39.195Z,90.00
2018-08-08T06:55:08.891Z,89.80
2018-08-08T06:57:36.386Z,89.60
2018-08-08T07:00:08.737Z,89.50
2018-08-08T07:02:36.189Z,89.30
2018-08-08T07:05:05.335Z,88.90
2018-08-08T07:07:32.743Z,89.10
2018-08-08T07:10:00.251Z,88.70
2018-08-08T07:12:27.673Z,89.00
2018-08-08T07:14:55.165Z,88.50
2018-08-08T07:17:22.613Z,89.00
2018-08-08T07:19:50.145Z,88.50
2018-08-08T07:22:17.687Z,88.80
2018-08-08T07:24:45.206Z,88.60
2018-08-08T07:27:12.705Z,89.00
2018-08-08T07:29:40.134Z,89.70
2018-08-08T07:32:07.971Z,89.50
2018-08-08T07:34:35.460Z,90.00
2018-08-08T07:37:03.270Z,90.10
2018-08-08T07:39:30.725Z,89.90
2018-08-08T07:41:58.134Z,89.60
2018-08-08T07:44:25.589Z,89.90
2018-08-08T07:46:53.145Z,90.10
2018-08-08T07:49:20.727Z,89.90
2018-08-08T07:51:48.167Z,89.80
2018-08-08T07:54:15.628Z,89.80
2018-08-08T07:56:43.142Z,89.90
2018-08-08T07:59:10.597Z,89.90
2018-08-08T08:01:38.089Z,90.00
2018-08-08T08:04:05.926Z,90.00
2018-08-08T08:06:33.381Z,90.10
2018-08-08T08:09:00.890Z,90.10
2018-08-08T08:11:28.301Z,90.20
2018-08-08T08:13:55.712Z,90.10
2018-08-08T08:16:23.213Z,90.20
2018-08-08T08:18:50.562Z,90.20
2018-08-08T08:21:17.995Z,90.20
2018-08-08T08:23:45.385Z,90.20
2018-08-08T08:26:12.861Z,90.10
2018-08-08T08:28:40.306Z,90.10
2018-08-08T08:31:08.119Z,90.20
2018-08-08T08:33:35.581Z,90.30
2018-08-08T08:36:03.184Z,90.40
2018-08-08T08:38:30.877Z,90.30
2018-08-08T08:40:58.351Z,90.30
2018-08-08T08:43:25.845Z,90.10
2018-08-08T08:45:53.299Z,90.00
2018-08-08T08:48:20.924Z,90.10
2018-08-08T08:50:48.315Z,90.10
2018-08-08T08:53:15.781Z,90.10
2018-08-08T08:55:43.241Z,90.10
2018-08-08T08:58:10.871Z,90.00
2018-08-08T09:00:38.326Z,90.10
2018-08-08T09:03:06.473Z,90.10
2018-08-08T09:05:33.921Z,90.10
2018-08-08T09:08:01.419Z,89.80
2018-08-08T09:10:28.873Z,89.50
2018-08-08T09:12:56.341Z,88.90
2018-08-08T09:15:23.752Z,88.80
2018-08-08T09:17:51.284Z,89.00
2018-08-08T09:20:18.760Z,88.70
2018-08-08T09:22:46.205Z,89.00
2018-08-08T09:25:13.633Z,89.00
2018-08-08T09:27:41.100Z,89.10
2018-08-08T09:30:10.749Z,89.50
2018-08-08T09:32:39.547Z,89.50
2018-08-08T09:35:07.398Z,89.50
2018-08-08T09:37:35.212Z,89.40
2018-08-08T09:40:02.804Z,90.10
2018-08-08T09:42:30.242Z,90.20
2018-08-08T09:44:57.979Z,90.30
2018-08-08T09:47:25.373Z,90.40
2018-08-08T09:49:52.754Z,90.90
2018-08-08T09:52:20.183Z,90.50
2018-08-08T09:54:47.638Z,90.10
2018-08-08T09:57:15.039Z,89.80
2018-08-08T09:59:42.454Z,88.20
2018-08-08T10:02:15.614Z,85.20
2018-08-08T10:04:43.091Z,82.40
2018-08-08T10:07:10.535Z,82.00
2018-08-08T10:09:37.945Z,81.50
2018-08-08T10:12:05.468Z,81.10
2018-08-08T10:14:32.907Z,80.50
2018-08-08T10:17:00.558Z,80.10
2018-08-08T10:19:28.069Z,80.50
2018-08-08T10:21:55.573Z,81.70
2018-08-08T10:24:23.074Z,82.60
2018-08-08T10:26:50.578Z,81.70
2018-08-08T10:29:18.194Z,81.80
2018-08-08T10:31:45.637Z,82.20
2018-08-08T10:34:13.388Z,81.60
2018-08-08T10:36:40.869Z,81.30
2018-08-08T10:39:10.151Z,80.80
2018-08-08T10:41:37.665Z,81.00
2018-08-08T10:44:05.701Z,81.30
2018-08-08T10:46:33.382Z,81.10
2018-08-08T10:49:00.801Z,80.90
2018-08-08T10:51:28.311Z,80.80
2018-08-08T10:53:56.085Z,80.60
2018-08-08T10:56:23.607Z,80.50
2018-08-08T10:58:51.208Z,80.60
2018-08-08T11:01:18.741Z,81.60
2018-08-08T11:03:46.171Z,81.60
2018-08-08T11:06:13.684Z,81.50
2018-08-08T11:08:41.395Z,79.70
2018-08-08T11:11:08.909Z,80.00
2018-08-08T11:13:36.330Z,80.10
2018-08-08T11:16:04.746Z,80.00
2018-08-08T11:18:32.229Z,79.90
2018-08-08T11:20:59.736Z,79.40
2018-08-08T11:23:27.208Z,79.90
2018-08-08T11:25:56.373Z,79.50
2018-08-08T11:28:24.001Z,79.50
2018-08-08T11:30:51.350Z,78.60
2018-08-08T11:33:18.720Z,78.70
2018-08-08T11:35:46.325Z,78.80
2018-08-08T11:38:13.776Z,78.70
2018-08-08T11:40:41.255Z,78.90
2018-08-08T11:43:08.726Z,79.10
2018-08-08T11:45:36.142Z,78.90
2018-08-08T11:48:03.965Z,79.10
2018-08-08T11:50:31.444Z,78.80
2018-08-08T11:52:58.897Z,78.80
2018-08-08T11:55:26.494Z,78.20
2018-08-08T11:57:53.959Z,77.80
2018-08-08T12:00:21.483Z,77.50
2018-08-08T12:02:48.943Z,77.20
2018-08-08T12:05:16.389Z,77.20
2018-08-08T12:07:43.817Z,77.20
2018-08-08T12:10:11.307Z,76.50
2018-08-08T12:12:38.781Z,76.00
2018-08-08T12:15:07.806Z,76.20
2018-08-08T12:17:35.347Z,76.20
2018-08-08T12:20:03.043Z,75.60
2018-08-08T12:22:30.611Z,75.70
2018-08-08T12:24:58.287Z,75.90
2018-08-08T12:27:26.849Z,75.90
2018-08-08T12:29:54.240Z,75.70
2018-08-08T12:32:21.932Z,75.70
2018-08-08T12:34:49.335Z,75.50
2018-08-08T12:37:17.632Z,75.50
2018-08-08T12:39:45.089Z,75.20
2018-08-08T12:42:12.526Z,75.40
2018-08-08T12:44:40.231Z,76.00
2018-08-08T12:47:07.647Z,75.50
2018-08-08T12:49:35.308Z,75.10
2018-08-08T12:52:02.938Z,75.30
2018-08-08T12:54:30.562Z,74.80
2018-08-08T12:56:57.966Z,75.10
2018-08-08T12:59:25.408Z,75.00
2018-08-08T13:01:53.035Z,75.30
2018-08-08T13:04:20.534Z,75.10
2018-08-08T13:06:47.912Z,75.70
2018-08-08T13:09:15.659Z,76.40
2018-08-08T13:11:43.236Z,76.10
2018-08-08T13:14:10.811Z,76.00
2018-08-08T13:16:38.407Z,76.20
2018-08-08T13:19:05.923Z,75.90
2018-08-08T13:21:33.500Z,75.90
2018-08-08T13:24:01.329Z,76.10
2018-08-08T13:26:28.722Z,76.50
2018-08-08T13:28:56.170Z,76.30
2018-08-08T13:31:23.880Z,76.60
2018-08-08T13:33:51.458Z,76.80
2018-08-08T13:36:18.909Z,76.50
2018-08-08T13:38:46.469Z,76.70
2018-08-08T13:41:14.114Z,76.60
2018-08-08T13:43:41.711Z,76.80
2018-08-08T13:46:09.100Z,77.10
2018-08-08T13:48:36.716Z,77.20
2018-08-08T13:51:04.258Z,77.30
2018-08-08T13:53:31.761Z,77.40
2018-08-08T13:55:59.562Z,77.50
2018-08-08T13:58:27.054Z,77.30
2018-08-08T14:00:54.466Z,77.00
2018-08-08T14:03:22.562Z,76.80
2018-08-08T14:05:50.223Z,75.90
2018-08-08T14:08:17.662Z,75.80
2018-08-08T14:10:45.102Z,76.10
2018-08-08T14:13:12.541Z,75.40
2018-08-08T14:15:40.048Z,75.10
2018-08-08T14:18:07.540Z,74.10
2018-08-08T14:20:35.037Z,74.20
2018-08-08T14:23:02.570Z,73.80
2018-08-08T14:25:30.029Z,73.30
2018-08-08T14:27:57.426Z,73.00
2018-08-08T14:30:24.828Z,73.30
2018-08-08T14:32:52.218Z,73.40
2018-08-08T14:35:19.615Z,74.10
2018-08-08T14:37:47.138Z,74.50
2018-08-08T14:40:14.559Z,74.40
2018-08-08T14:42:41.999Z,74.30
2018-08-08T14:45:09.503Z,73.90
2018-08-08T14:47:36.961Z,74.10
2018-08-08T14:50:05.026Z,74.20
2018-08-08T14:52:32.557Z,73.80
2018-08-08T14:55:00.027Z,73.20
2018-08-08T14:57:27.565Z,72.90
2018-08-08T14:59:54.965Z,72.90
2018-08-08T15:02:22.377Z,72.60
2018-08-08T15:04:49.753Z,72.50
2018-08-08T15:07:17.185Z,73.30
2018-08-08T15:09:44.665Z,73.00
2018-08-08T15:12:12.173Z,73.40
2018-08-08T15:14:39.559Z,73.40
2018-08-08T15:17:07.023Z,73.40
2018-08-08T15:19:34.460Z,73.50
2018-08-08T15:22:01.914Z,73.20
2018-08-08T15:24:29.338Z,73.10
2018-08-08T15:26:56.834Z,72.90
2018-08-08T15:29:24.314Z,72.80
2018-08-08T15:31:51.876Z,72.90
2018-08-08T15:34:19.199Z,71.70
2018-08-08T15:36:46.645Z,71.10
2018-08-08T15:39:14.101Z,70.70
2018-08-08T15:41:41.506Z,70.50
2018-08-08T15:44:08.993Z,70.10
2018-08-08T15:46:36.579Z,69.00
2018-08-08T15:49:04.369Z,69.40
2018-08-08T15:51:32.086Z,68.80
2018-08-08T15:53:59.629Z,68.90
2018-08-08T15:56:27.433Z,67.60
2018-08-08T15:58:55.486Z,67.20
2018-08-08T16:01:23.126Z,67.00
2018-08-08T16:03:50.602Z,67.00
2018-08-08T16:06:18.283Z,66.80
2018-08-08T16:08:45.705Z,65.50
2018-08-08T16:11:13.435Z,64.90
2018-08-08T16:13:41.304Z,64.90
2018-08-08T16:16:08.701Z,64.60
2018-08-08T16:18:36.210Z,63.90
2018-08-08T16:21:03.728Z,63.30
2018-08-08T16:23:31.230Z,63.10
2018-08-08T16:25:58.697Z,63.00
2018-08-08T16:28:26.190Z,62.70
2018-08-08T16:30:53.650Z,62.60
2018-08-08T16:33:21.102Z,63.10
2018-08-08T16:35:48.587Z,63.20
2018-08-08T16:38:16.716Z,63.50
2018-08-08T16:40:44.689Z,63.70
2018-08-08T16:43:12.299Z,63.50
2018-08-08T16:45:39.806Z,63.30
2018-08-08T16:48:07.288Z,63.40
2018-08-08T16:50:35.118Z,63.50
2018-08-08T16:53:02.794Z,63.40
2018-08-08T16:55:30.365Z,62.90
2018-08-08T16:57:57.990Z,63.10
2018-08-08T17:00:25.487Z,62.50
2018-08-08T17:02:53.814Z,62.80
2018-08-08T17:05:22.006Z,63.00
2018-08-08T17:07:49.890Z,62.80
2018-08-08T17:10:17.325Z,63.00
2018-08-08T17:12:45.237Z,63.00
2018-08-08T17:15:12.650Z,63.00
2018-08-08T17:17:41.570Z,63.00
2018-08-08T17:20:09.220Z,62.90
2018-08-08T17:22:36.808Z,62.40
2018-08-08T17:25:04.606Z,62.30
2018-08-08T17:27:32.232Z,61.80
2018-08-08T17:29:59.712Z,61.60
2018-08-08T17:32:28.879Z,61.10
2018-08-08T17:34:56.692Z,61.50
2018-08-08T17:37:24.065Z,61.70
2018-08-08T17:39:51.495Z,61.60
2018-08-08T17:42:18.906Z,61.10
2018-08-08T17:44:46.938Z,61.10
2018-08-08T17:47:14.550Z,61.10
2018-08-08T17:49:41.963Z,61.20
2018-08-08T17:52:09.371Z,61.30
2018-08-08T17:54:36.785Z,61.40
2018-08-08T17:57:04.440Z,61.40
2018-08-08T17:59:31.862Z,61.20
2018-08-08T18:01:59.333Z,61.60
2018-08-08T18:04:26.743Z,61.30
2018-08-08T18:06:54.209Z,61.40
2018-08-08T18:09:21.741Z,61.70
2018-08-08T18:11:49.429Z,61.70
2018-08-08T18:14:17.517Z,61.70
2018-08-08T18:16:45.103Z,61.70
2018-08-08T18:19:12.627Z,61.80
2018-08-08T18:21:40.014Z,61.90
2018-08-08T18:24:07.528Z,62.10
2018-08-08T18:26:35.290Z,61.80
2018-08-08T18:29:02.802Z,61.90
2018-08-08T18:31:30.297Z,62.10
2018-08-08T18:33:57.711Z,62.30
2018-08-08T18:36:25.108Z,62.30
2018-08-08T18:38:52.506Z,62.30
2018-08-08T18:41:19.931Z,61.80
2018-08-08T18:43:47.849Z,62.50
2018-08-08T18:46:15.299Z,62.60
2018-08-08T18:48:42.769Z,62.60
2018-08-08T18:51:10.422Z,62.40
2018-08-08T18:53:38.096Z,62.40
2018-08-08T18:56:06.070Z,62.50
2018-08-08T18:58:33.500Z,62.70
2018-08-08T19:01:01.071Z,62.60
2018-08-08T19:03:28.599Z,62.50
2018-08-08T19:05:55.992Z,62.60
2018-08-08T19:08:23.553Z,62.40
2018-08-08T19:10:51.437Z,62.40
2018-08-08T19:13:19.119Z,62.60
2018-08-08T19:15:46.848Z,62.70
2018-08-08T19:18:14.411Z,62.80
2018-08-08T19:20:41.810Z,62.90
2018-08-08T19:23:09.307Z,62.80
2018-08-08T19:25:36.942Z,62.90
2018-08-08T19:28:05.078Z,63.10
2018-08-08T19:30:32.529Z,63.20
2018-08-08T19:33:00.135Z,63.30
2018-08-08T19:35:27.641Z,63.40
2018-08-08T19:37:55.198Z,63.60
2018-08-08T19:40:22.924Z,63.70
2018-08-08T19:42:50.476Z,63.80
2018-08-08T19:45:18.062Z,63.90
2018-08-08T19:47:45.461Z,63.60
2018-08-08T19:50:12.940Z,63.80
2018-08-08T19:52:40.365Z,63.90
2018-08-08T19:55:07.795Z,64.10
2018-08-08T19:57:35.675Z,64.00
2018-08-08T20:00:03.219Z,64.20
2018-08-08T20:02:30.929Z,64.20
2018-08-08T20:04:58.375Z,64.30
2018-08-08T20:07:25.810Z,64.40
2018-08-08T20:09:53.682Z,64.60
2018-08-08T20:12:21.073Z,64.70
2018-08-08T20:14:48.746Z,64.80
2018-08-08T20:17:16.235Z,65.00
2018-08-08T20:19:43.890Z,64.90
2018-08-08T20:22:16.476Z,65.20
2018-08-08T20:24:44.391Z,65.30
2018-08-08T20:27:12.383Z,65.20
2018-08-08T20:29:40.246Z,65.00
2018-08-08T20:32:07.646Z,65.10
2018-08-08T20:34:35.281Z,65.10
2018-08-08T20:37:02.784Z,65.70
2018-08-08T20:39:30.241Z,65.10
2018-08-08T20:41:58.014Z,65.20
2018-08-08T20:44:25.431Z,65.30
2018-08-08T20:46:52.879Z,65.30
2018-08-08T20:49:20.266Z,65.20
2018-08-08T20:51:47.847Z,65.20
2018-08-08T20:54:15.238Z,65.90
2018-08-08T20:56:42.726Z,65.40
2018-08-08T20:59:10.161Z,66.30
2018-08-08T21:01:37.717Z,65.90
2018-08-08T21:04:05.267Z,66.20
2018-08-08T21:06:32.759Z,66.00
2018-08-08T21:09:00.133Z,66.10
2018-08-08T21:11:27.623Z,66.20
2018-08-08T21:13:54.997Z,66.30
2018-08-08T21:16:22.454Z,66.20
2018-08-08T21:18:49.939Z,66.60
2018-08-08T21:21:17.400Z,66.70
2018-08-08T21:23:44.815Z,66.80
2018-08-08T21:26:12.230Z,66.80
2018-08-08T21:28:39.594Z,67.00
2018-08-08T21:31:07.147Z,67.50
2018-08-08T21:33:34.523Z,67.70
2018-08-08T21:36:02.001Z,67.80
2018-08-08T21:38:29.390Z,67.80
2018-08-08T21:40:56.818Z,67.80
2018-08-08T21:43:24.292Z,68.40
2018-08-08T21:45:51.754Z,68.20
2018-08-08T21:48:19.191Z,68.30
2018-08-08T21:50:46.666Z,68.30
2018-08-08T21:53:16.506Z,68.60
2018-08-08T21:55:55.664Z,68.60
2018-08-08T21:58:34.965Z,68.50
2018-08-08T22:01:14.196Z,68.30
2018-08-08T22:03:54.070Z,68.80
2018-08-08T22:06:33.313Z,68.80
2018-08-08T22:09:12.236Z,69.10
2018-08-08T22:11:55.652Z,69.20
2018-08-08T22:14:34.531Z,69.10
2018-08-08T22:17:13.618Z,68.90
2018-08-08T22:19:43.218Z,68.90
2018-08-08T22:22:10.730Z,69.80
2018-08-08T22:24:38.234Z,69.80
2018-08-08T22:27:06.018Z,70.20
2018-08-08T22:29:33.474Z,70.40
2018-08-08T22:32:00.971Z,70.90
2018-08-08T22:34:28.389Z,71.10
2018-08-08T22:36:56.084Z,71.10
2018-08-08T22:39:23.581Z,71.20
2018-08-08T22:41:51.043Z,71.70
2018-08-08T22:44:18.584Z,71.80
2018-08-08T22:46:46.541Z,71.90
2018-08-08T22:49:13.984Z,71.40
2018-08-08T22:51:41.402Z,71.70
2018-08-08T22:54:08.875Z,71.50
2018-08-08T22:56:36.285Z,71.70
2018-08-08T22:59:03.791Z,71.90
2018-08-08T23:01:31.213Z,71.70
2018-08-08T23:03:58.831Z,72.30
2018-08-08T23:06:27.885Z,72.50
2018-08-08T23:08:55.307Z,72.40
2018-08-08T23:11:22.712Z,72.20
2018-08-08T23:13:50.129Z,72.20
2018-08-08T23:16:17.930Z,73.10
2018-08-08T23:18:45.370Z,72.80
2018-08-08T23:21:12.875Z,72.50
2018-08-08T23:23:40.305Z,72.40
2018-08-08T23:26:08.102Z,72.70
2018-08-08T23:28:35.552Z,71.80
2018-08-08T23:31:02.967Z,71.90
2018-08-08T23:33:30.505Z,72.70
2018-08-08T23:35:57.929Z,73.00
2018-08-08T23:38:25.373Z,73.40
2018-08-08T23:40:52.853Z,73.70
2018-08-08T23:43:20.248Z,73.90
2018-08-08T23:45:47.983Z,73.90
2018-08-08T23:48:15.453Z,74.00
2018-08-08T23:50:42.869Z,73.50
2018-08-08T23:53:10.371Z,73.20
2018-08-08T23:55:37.826Z,73.40
2018-08-08T23:58:05.378Z,73.60
